Time;durP1;ratioP1;P1;durP2;ratioP2;P2;SDS_P1;SDS_P2;PMS_P1;PMS_P2;Temp;Humidity;BMP_temperature;BMP_pressure;BME280_temperature;BME280_humidity;BME280_pressure;Samples;Min_cycle;Max_cycle;Signal;HPM_P1;HPM_P2
2023/07/03 00:01:51;;;;;;;22.92;4.53;;;;;;;;;;5013301;28;93139;-71
2023/07/03 00:04:18;;;;;;;32.30;5.43;;;;;;;;;;5017065;28;93422;-71
2023/07/03 00:06:45;;;;;;;32.20;5.40;;;;;;;;;;5014040;28;93182;-74
2023/07/03 00:09:12;;;;;;;25.80;5.85;;;;;;;;;;5013861;28;93629;-73
2023/07/03 00:11:38;;;;;;;28.65;5.55;;;;;;;;;;5014394;28;91701;-74
2023/07/03 00:14:05;;;;;;;31.10;6.25;;;;;;;;;;5014207;28;92780;-72
2023/07/03 00:16:34;;;;;;;22.92;5.38;;;;;;;;;;5014225;28;93422;-73
2023/07/03 00:19:00;;;;;;;26.88;5.55;;;;;;;;;;5012831;28;94805;-72
2023/07/03 00:21:27;;;;;;;30.08;5.65;;;;;;;;;;5013547;28;95968;-73
2023/07/03 00:23:53;;;;;;;25.10;4.88;;;;;;;;;;5013621;28;93218;-73
2023/07/03 00:26:19;;;;;;;23.08;4.88;;;;;;;;;;5016884;28;92870;-72
2023/07/03 00:28:46;;;;;;;38.95;5.68;;;;;;;;;;5013545;28;93487;-72
2023/07/03 00:31:12;;;;;;;31.08;5.90;;;;;;;;;;5013710;28;92427;-72
2023/07/03 00:33:38;;;;;;;31.15;5.50;;;;;;;;;;5014701;28;93552;-73
2023/07/03 00:36:05;;;;;;;27.80;4.70;;;;;;;;;;5017614;28;91677;-72
2023/07/03 00:38:31;;;;;;;25.13;5.07;;;;;;;;;;5017270;28;92397;-73
2023/07/03 00:40:57;;;;;;;26.00;5.00;;;;;;;;;;5017312;28;93377;-72
2023/07/03 00:43:25;;;;;;;26.60;5.00;;;;;;;;;;5015305;28;96306;-72
2023/07/03 00:45:52;;;;;;;29.05;5.60;;;;;;;;;;5016860;28;92390;-72
2023/07/03 00:48:19;;;;;;;31.55;5.22;;;;;;;;;;5020556;28;93226;-72
2023/07/03 00:50:45;;;;;;;32.83;4.78;;;;;;;;;;5017130;28;92482;-72
2023/07/03 00:53:11;;;;;;;26.30;5.25;;;;;;;;;;5017121;28;93407;-72
2023/07/03 00:55:41;;;;;;;23.17;5.93;;;;;;;;;;5016705;28;93402;-72
2023/07/03 00:58:07;;;;;;;25.15;5.32;;;;;;;;;;5017190;28;92400;-72
2023/07/03 01:00:39;;;;;;;30.15;5.30;;;;;;;;;;5017441;28;93114;-72
2023/07/03 01:03:10;;;;;;;31.95;5.53;;;;;;;;;;5016760;28;93789;-72
2023/07/03 01:05:40;;;;;;;26.83;5.28;;;;;;;;;;5016950;28;92740;-72
2023/07/03 01:08:09;;;;;;;30.27;4.93;;;;;;;;;;5015405;28;94842;-72
2023/07/03 01:10:36;;;;;;;25.73;5.28;;;;;;;;;;5019917;28;93945;-72
2023/07/03 01:13:04;;;;;;;39.75;5.88;;;;;;;;;;5016575;28;93518;-72
2023/07/03 01:15:32;;;;;;;23.80;4.90;;;;;;;;;;5016362;28;93769;-73
2023/07/03 01:18:01;;;;;;;43.45;6.95;;;;;;;;;;5017197;28;92476;-72
2023/07/03 01:20:31;;;;;;;31.83;6.18;;;;;;;;;;5016461;28;93239;-72
2023/07/03 01:23:15;;;;;;;35.30;7.38;;;;;;;;;;5016400;28;93392;-72
2023/07/03 01:25:42;;;;;;;37.55;6.00;;;;;;;;;;5016767;28;91960;-73
2023/07/03 01:28:11;;;;;;;34.47;6.20;;;;;;;;;;5016287;28;93040;-72
2023/07/03 01:30:40;;;;;;;25.33;5.38;;;;;;;;;;5019168;28;93481;-72
2023/07/03 01:33:07;;;;;;;28.40;5.63;;;;;;;;;;5015024;28;94752;-71
2023/07/03 01:35:33;;;;;;;33.65;6.15;;;;;;;;;;5015946;28;93583;-73
2023/07/03 01:38:01;;;;;;;27.33;5.40;;;;;;;;;;5015365;28;92522;-72
2023/07/03 01:40:27;;;;;;;30.77;5.97;;;;;;;;;;5016277;28;94657;-72
2023/07/03 01:42:54;;;;;;;36.00;6.05;;;;;;;;;;5015837;28;93657;-72
2023/07/03 01:45:21;;;;;;;37.33;5.28;;;;;;;;;;5014906;28;92435;-72
2023/07/03 01:47:47;;;;;;;31.83;6.57;;;;;;;;;;5016444;28;93342;-72
2023/07/03 01:50:16;;;;;;;32.65;6.68;;;;;;;;;;5016605;28;92675;-72
2023/07/03 01:52:51;;;;;;;31.23;6.22;;;;;;;;;;5019026;28;92385;-72
2023/07/03 01:55:23;;;;;;;40.63;6.22;;;;;;;;;;5015750;28;94010;-72
2023/07/03 01:57:50;;;;;;;32.63;6.22;;;;;;;;;;5014828;28;94863;-72
2023/07/03 02:00:19;;;;;;;33.22;6.85;;;;;;;;;;5015830;28;95574;-72
2023/07/03 02:02:47;;;;;;;37.50;6.25;;;;;;;;;;5016055;28;94733;-72
2023/07/03 02:05:17;;;;;;;39.53;6.75;;;;;;;;;;5015904;28;92417;-72
2023/07/03 02:07:45;;;;;;;42.72;7.18;;;;;;;;;;5015889;28;93537;-72
2023/07/03 02:10:11;;;;;;;25.40;5.38;;;;;;;;;;5015609;28;93953;-72
2023/07/03 02:12:41;;;;;;;33.13;5.90;;;;;;;;;;5015715;28;92502;-72
2023/07/03 02:15:07;;;;;;;34.90;6.47;;;;;;;;;;5019023;28;93530;-72
2023/07/03 02:17:34;;;;;;;37.30;5.88;;;;;;;;;;5016460;28;92604;-72
2023/07/03 02:20:00;;;;;;;34.67;6.35;;;;;;;;;;5016166;28;93712;-72
2023/07/03 02:22:26;;;;;;;35.15;6.43;;;;;;;;;;5013846;28;96820;-72
2023/07/03 02:24:53;;;;;;;45.10;7.20;;;;;;;;;;5015635;28;92422;-72
2023/07/03 02:27:19;;;;;;;36.60;6.55;;;;;;;;;;5015452;28;93470;-72
2023/07/03 02:29:46;;;;;;;35.35;5.95;;;;;;;;;;5015411;28;93513;-72
2023/07/03 02:32:13;;;;;;;36.00;6.75;;;;;;;;;;5015561;28;92454;-72
2023/07/03 02:34:39;;;;;;;41.75;7.38;;;;;;;;;;5014429;28;96265;-72
2023/07/03 02:37:08;;;;;;;40.17;6.93;;;;;;;;;;5018329;28;93587;-72
2023/07/03 02:39:35;;;;;;;31.70;5.38;;;;;;;;;;5015959;28;93233;-72
2023/07/03 02:42:02;;;;;;;39.13;6.65;;;;;;;;;;5013709;28;93624;-72
2023/07/03 02:44:28;;;;;;;44.40;7.25;;;;;;;;;;5015165;28;92446;-72
2023/07/03 02:46:55;;;;;;;37.38;7.07;;;;;;;;;;5013977;28;94820;-72
2023/07/03 02:49:21;;;;;;;38.42;7.20;;;;;;;;;;5015108;28;93488;-72
2023/07/03 02:51:47;;;;;;;41.08;6.07;;;;;;;;;;5015111;28;92466;-72
2023/07/03 02:54:14;;;;;;;44.28;7.40;;;;;;;;;;5015531;28;93364;-72
2023/07/03 02:56:40;;;;;;;30.90;6.28;;;;;;;;;;5014701;28;93452;-71
2023/07/03 02:59:06;;;;;;;38.00;6.18;;;;;;;;;;5018417;28;92419;-71
2023/07/03 03:01:33;;;;;;;42.20;6.22;;;;;;;;;;5015003;28;92482;-71
2023/07/03 03:03:59;;;;;;;45.50;7.53;;;;;;;;;;5015748;28;91683;-71
2023/07/03 03:06:26;;;;;;;35.85;6.82;;;;;;;;;;5014805;28;92467;-71
2023/07/03 03:08:52;;;;;;;49.05;8.50;;;;;;;;;;5014766;28;93515;-71
2023/07/03 03:11:19;;;;;;;37.15;6.70;;;;;;;;;;5013049;28;94878;-71
2023/07/03 03:13:45;;;;;;;37.50;7.32;;;;;;;;;;5014812;28;95600;-71
2023/07/03 03:16:11;;;;;;;29.58;5.95;;;;;;;;;;5014904;28;93594;-71
2023/07/03 03:18:38;;;;;;;49.83;7.57;;;;;;;;;;5014465;28;92413;-71
2023/07/03 03:21:04;;;;;;;26.48;5.88;;;;;;;;;;5017469;28;93620;-71
2023/07/03 03:23:31;;;;;;;31.33;6.28;;;;;;;;;;5014816;28;92374;-72
2023/07/03 03:25:57;;;;;;;41.25;6.72;;;;;;;;;;5014009;28;93579;-71
2023/07/03 03:28:23;;;;;;;42.03;6.78;;;;;;;;;;5015485;28;92465;-71
2023/07/03 03:30:50;;;;;;;43.03;7.55;;;;;;;;;;5014500;28;92427;-71
2023/07/03 03:33:16;;;;;;;37.25;6.22;;;;;;;;;;5014458;28;93246;-71
2023/07/03 03:35:44;;;;;;;38.40;7.35;;;;;;;;;;5012605;28;96190;-71
2023/07/03 03:38:11;;;;;;;44.90;7.88;;;;;;;;;;5014717;28;92914;-71
2023/07/03 03:40:37;;;;;;;43.20;7.15;;;;;;;;;;5017231;28;93521;-71
2023/07/03 03:43:04;;;;;;;43.63;8.07;;;;;;;;;;5014284;28;92472;-71
2023/07/03 03:45:30;;;;;;;41.00;7.45;;;;;;;;;;5013644;28;93194;-72
2023/07/03 03:47:57;;;;;;;39.88;8.35;;;;;;;;;;5014336;28;94483;-72
2023/07/03 03:50:23;;;;;;;46.33;7.78;;;;;;;;;;5014129;28;92501;-71
2023/07/03 03:52:50;;;;;;;37.97;7.45;;;;;;;;;;5013137;28;93201;-71
2023/07/03 03:55:16;;;;;;;40.22;7.07;;;;;;;;;;5014114;28;93455;-72
2023/07/03 03:57:42;;;;;;;43.85;7.03;;;;;;;;;;5013924;28;92423;-70
2023/07/03 04:00:16;;;;;;;31.40;6.38;;;;;;;;;;5012638;28;95195;-71
2023/07/03 04:02:43;;;;;;;44.83;7.57;;;;;;;;;;5016774;28;93544;-70
2023/07/03 04:05:09;;;;;;;48.67;7.35;;;;;;;;;;5014160;28;93186;-71
2023/07/03 04:07:36;;;;;;;41.25;6.90;;;;;;;;;;5013733;28;93811;-70
2023/07/03 04:10:03;;;;;;;29.00;5.82;;;;;;;;;;5017077;28;92526;-73
2023/07/03 04:12:30;;;;;;;39.00;7.82;;;;;;;;;;5017354;28;93099;-71
2023/07/03 04:14:56;;;;;;;44.53;7.30;;;;;;;;;;5017103;28;93426;-71
2023/07/03 04:17:22;;;;;;;35.63;6.57;;;;;;;;;;5030039;28;91775;-71
2023/07/03 04:19:49;;;;;;;41.30;7.88;;;;;;;;;;5037425;27;92398;-71
2023/07/03 04:22:15;;;;;;;38.75;7.05;;;;;;;;;;5037115;27;93829;-71
2023/07/03 04:24:42;;;;;;;44.20;7.72;;;;;;;;;;5038906;27;94860;-71
2023/07/03 04:27:08;;;;;;;35.05;7.03;;;;;;;;;;5036454;27;93412;-71
2023/07/03 04:29:34;;;;;;;35.28;6.63;;;;;;;;;;5037648;27;92501;-71
2023/07/03 04:32:01;;;;;;;43.58;6.55;;;;;;;;;;5037457;27;93251;-71
2023/07/03 04:34:27;;;;;;;35.75;7.68;;;;;;;;;;5037169;27;94624;-71
2023/07/03 04:36:54;;;;;;;39.78;7.25;;;;;;;;;;5036051;28;92546;-70
2023/07/03 04:39:20;;;;;;;33.88;6.70;;;;;;;;;;5037193;27;92709;-71
2023/07/03 04:41:47;;;;;;;33.20;6.85;;;;;;;;;;5037307;27;92822;-71
2023/07/03 04:44:13;;;;;;;36.25;6.53;;;;;;;;;;5036848;27;92512;-73
2023/07/03 04:46:40;;;;;;;37.28;6.38;;;;;;;;;;5032429;28;93462;-72
2023/07/03 04:49:07;;;;;;;39.22;6.03;;;;;;;;;;5015653;28;94894;-72
2023/07/03 04:51:34;;;;;;;38.30;6.22;;;;;;;;;;5016671;28;96817;-72
2023/07/03 04:54:00;;;;;;;34.55;6.63;;;;;;;;;;5015582;28;93393;-73
2023/07/03 04:56:27;;;;;;;33.88;6.40;;;;;;;;;;5016611;28;92393;-72
2023/07/03 04:58:54;;;;;;;37.95;6.75;;;;;;;;;;5016763;28;93417;-72
2023/07/03 05:01:22;;;;;;;31.42;5.88;;;;;;;;;;5016769;28;94699;-72
2023/07/03 05:03:48;;;;;;;36.75;5.60;;;;;;;;;;5016600;28;92454;-72
2023/07/03 05:06:15;;;;;;;37.53;6.03;;;;;;;;;;5017151;28;93336;-72
2023/07/03 05:08:41;;;;;;;27.48;5.15;;;;;;;;;;5019535;28;93480;-72
2023/07/03 05:11:07;;;;;;;39.03;6.18;;;;;;;;;;5015112;28;93635;-72
2023/07/03 05:13:34;;;;;;;30.48;6.18;;;;;;;;;;5014425;28;96352;-73
2023/07/03 05:16:00;;;;;;;26.17;5.65;;;;;;;;;;5016856;28;92711;-72
2023/07/03 05:18:26;;;;;;;22.67;5.15;;;;;;;;;;5016560;28;93427;-72
2023/07/03 05:20:53;;;;;;;32.67;5.95;;;;;;;;;;5014948;28;93499;-72
2023/07/03 05:23:19;;;;;;;30.38;6.63;;;;;;;;;;5016364;28;92920;-72
2023/07/03 05:25:46;;;;;;;43.33;6.97;;;;;;;;;;5015920;28;93233;-72
2023/07/03 05:28:12;;;;;;;33.05;5.85;;;;;;;;;;5015943;28;93510;-72
2023/07/03 05:30:38;;;;;;;25.85;5.68;;;;;;;;;;5019706;28;91684;-72
2023/07/03 05:33:05;;;;;;;23.92;5.45;;;;;;;;;;5014817;28;93903;-72
2023/07/03 05:35:31;;;;;;;20.75;5.32;;;;;;;;;;5016338;28;92507;-72
2023/07/03 05:38:00;;;;;;;24.70;5.28;;;;;;;;;;5014568;28;95122;-72
2023/07/03 05:40:27;;;;;;;21.42;5.53;;;;;;;;;;5016140;28;93535;-72
2023/07/03 05:42:54;;;;;;;28.52;4.35;;;;;;;;;;5014789;28;92393;-72
2023/07/03 05:45:20;;;;;;;20.48;4.40;;;;;;;;;;5016064;28;93423;-72
2023/07/03 05:47:47;;;;;;;20.17;3.78;;;;;;;;;;5016101;28;93467;-72
2023/07/03 05:50:13;;;;;;;25.80;3.63;;;;;;;;;;5019060;28;92413;-72
2023/07/03 05:52:41;;;;;;;17.63;3.83;;;;;;;;;;5015443;28;93445;-73
2023/07/03 05:55:08;;;;;;;20.58;3.30;;;;;;;;;;5015408;28;91671;-72
2023/07/03 05:57:34;;;;;;;16.95;3.38;;;;;;;;;;5016059;28;92520;-72
2023/07/03 06:00:01;;;;;;;18.35;2.58;;;;;;;;;;5015722;28;93461;-72
2023/07/03 06:02:27;;;;;;;12.00;2.88;;;;;;;;;;5014351;28;95296;-72
2023/07/03 06:04:53;;;;;;;14.90;2.17;;;;;;;;;;5015641;28;95735;-72
2023/07/03 06:07:20;;;;;;;12.45;2.55;;;;;;;;;;5015638;28;94413;-72
2023/07/03 06:09:46;;;;;;;14.30;3.35;;;;;;;;;;5015812;28;92477;-72
2023/07/03 06:12:13;;;;;;;11.05;2.50;;;;;;;;;;5018562;28;93212;-72
2023/07/03 06:14:39;;;;;;;15.57;2.78;;;;;;;;;;5013879;28;92944;-72
2023/07/03 06:17:06;;;;;;;17.15;2.65;;;;;;;;;;5015970;28;93409;-72
2023/07/03 06:19:32;;;;;;;14.85;2.55;;;;;;;;;;5015858;28;92876;-72
2023/07/03 06:21:58;;;;;;;19.27;2.97;;;;;;;;;;5015069;28;92476;-72
2023/07/03 06:24:25;;;;;;;17.73;3.00;;;;;;;;;;5014077;28;93128;-72
2023/07/03 06:26:52;;;;;;;12.80;2.75;;;;;;;;;;5013016;28;94880;-72
2023/07/03 06:29:18;;;;;;;13.38;2.70;;;;;;;;;;5015435;28;92752;-72
2023/07/03 06:31:45;;;;;;;12.48;2.33;;;;;;;;;;5014783;28;94627;-72
2023/07/03 06:34:11;;;;;;;15.73;2.97;;;;;;;;;;5018343;28;95508;-72
2023/07/03 06:36:38;;;;;;;9.23;2.40;;;;;;;;;;5015123;28;93250;-72
2023/07/03 06:39:04;;;;;;;14.68;3.20;;;;;;;;;;5014954;28;93463;-72
2023/07/03 06:41:32;;;;;;;15.43;3.10;;;;;;;;;;5015192;28;92435;-72
2023/07/03 06:43:58;;;;;;;14.40;2.53;;;;;;;;;;5015623;28;93198;-72
2023/07/03 06:46:25;;;;;;;16.85;3.17;;;;;;;;;;5015324;28;93352;-72
2023/07/03 06:48:53;;;;;;;10.93;2.50;;;;;;;;;;5013429;28;92439;-72
2023/07/03 06:51:19;;;;;;;10.65;1.90;;;;;;;;;;5013421;28;94746;-72
2023/07/03 06:53:45;;;;;;;15.07;2.70;;;;;;;;;;5013111;28;93540;-72
2023/07/03 06:56:12;;;;;;;14.43;2.45;;;;;;;;;;5018048;28;92745;-72
2023/07/03 06:58:38;;;;;;;17.38;2.95;;;;;;;;;;5013335;28;93273;-72
2023/07/03 07:01:05;;;;;;;12.07;2.28;;;;;;;;;;5015017;28;92562;-72
2023/07/03 07:03:32;;;;;;;13.45;2.58;;;;;;;;;;5013217;28;93354;-72
2023/07/03 07:06:06;;;;;;;10.70;2.15;;;;;;;;;;5014599;28;93439;-72
2023/07/03 07:08:32;;;;;;;12.18;2.70;;;;;;;;;;5015166;28;91733;-72
2023/07/03 07:10:59;;;;;;;15.75;2.88;;;;;;;;;;5014809;28;93901;-72
2023/07/03 07:13:25;;;;;;;14.73;2.53;;;;;;;;;;5014436;28;93633;-72
2023/07/03 07:15:51;;;;;;;16.67;2.80;;;;;;;;;;5012970;28;94894;-72
2023/07/03 07:18:18;;;;;;;11.30;2.30;;;;;;;;;;5017694;28;97223;-72
2023/07/03 07:20:45;;;;;;;18.85;2.88;;;;;;;;;;5015018;28;92436;-71
2023/07/03 07:23:11;;;;;;;13.88;3.10;;;;;;;;;;5013031;28;93225;-71
2023/07/03 07:25:38;;;;;;;14.98;2.55;;;;;;;;;;5013975;28;93515;-71
2023/07/03 07:28:05;;;;;;;15.93;2.22;;;;;;;;;;5014811;28;92445;-72
2023/07/03 07:30:31;;;;;;;12.65;2.75;;;;;;;;;;5012871;28;93261;-72
2023/07/03 07:32:58;;;;;;;15.57;2.65;;;;;;;;;;5014833;28;92452;-72
2023/07/03 07:35:24;;;;;;;11.75;2.47;;;;;;;;;;5014072;28;92451;-71
2023/07/03 07:37:51;;;;;;;10.45;2.80;;;;;;;;;;5017480;28;93492;-72
2023/07/03 07:40:17;;;;;;;15.45;3.33;;;;;;;;;;5012633;28;94840;-72
2023/07/03 07:42:43;;;;;;;11.05;2.50;;;;;;;;;;5013532;28;95878;-71
2023/07/03 07:45:10;;;;;;;12.60;2.60;;;;;;;;;;5013302;28;93532;-71
2023/07/03 07:47:36;;;;;;;14.88;2.63;;;;;;;;;;5014863;28;92428;-72
2023/07/03 07:50:03;;;;;;;8.05;2.30;;;;;;;;;;5013949;28;92997;-71
2023/07/03 07:52:30;;;;;;;10.88;2.25;;;;;;;;;;5014016;28;93217;-72
2023/07/03 07:54:57;;;;;;;15.85;2.63;;;;;;;;;;5014064;28;92433;-71
2023/07/03 07:57:24;;;;;;;12.27;2.72;;;;;;;;;;5014434;28;93285;-71
2023/07/03 07:59:50;;;;;;;14.20;2.13;;;;;;;;;;5016905;28;93603;-72
2023/07/03 08:02:16;;;;;;;10.40;2.30;;;;;;;;;;5014083;28;93726;-71
2023/07/03 08:04:43;;;;;;;11.73;2.83;;;;;;;;;;5011835;28;96168;-71
2023/07/03 08:07:10;;;;;;;11.02;2.55;;;;;;;;;;5013707;28;92421;-71
2023/07/03 08:09:38;;;;;;;14.77;2.65;;;;;;;;;;5013744;28;93582;-71
2023/07/03 08:12:05;;;;;;;14.85;2.88;;;;;;;;;;5013979;28;93231;-71
2023/07/03 08:14:31;;;;;;;20.77;3.33;;;;;;;;;;5013826;28;92455;-72
2023/07/03 08:16:58;;;;;;;10.45;2.72;;;;;;;;;;5014157;28;92393;-71
2023/07/03 08:19:24;;;;;;;15.85;2.63;;;;;;;;;;5013876;28;96770;-71
2023/07/03 08:21:51;;;;;;;10.43;2.53;;;;;;;;;;5017370;28;91728;-71
2023/07/03 08:24:17;;;;;;;10.90;2.33;;;;;;;;;;5013610;28;92513;-72
2023/07/03 08:26:45;;;;;;;14.43;2.42;;;;;;;;;;5013432;28;92438;-71
2023/07/03 08:29:11;;;;;;;17.85;2.92;;;;;;;;;;5012232;28;94782;-72
2023/07/03 08:31:37;;;;;;;16.67;2.85;;;;;;;;;;5013705;28;94441;-71
2023/07/03 08:34:04;;;;;;;22.48;2.67;;;;;;;;;;5013729;28;92415;-71
2023/07/03 08:36:30;;;;;;;16.83;3.92;;;;;;;;;;5013706;28;93520;-71
2023/07/03 08:39:01;;;;;;;12.55;2.13;;;;;;;;;;5013604;28;93199;-71
2023/07/03 08:41:27;;;;;;;14.20;2.40;;;;;;;;;;5013414;28;92577;-71
2023/07/03 08:43:56;;;;;;;14.05;2.38;;;;;;;;;;5016466;28;94346;-72
2023/07/03 08:46:24;;;;;;;18.25;2.67;;;;;;;;;;5012744;28;91837;-72
2023/07/03 08:48:51;;;;;;;14.70;2.97;;;;;;;;;;5013596;28;92519;-72
2023/07/03 08:51:19;;;;;;;15.95;2.78;;;;;;;;;;5013077;28;93536;-71
2023/07/03 08:53:48;;;;;;;17.98;3.03;;;;;;;;;;5011990;28;94904;-72
2023/07/03 08:56:16;;;;;;;12.10;2.35;;;;;;;;;;5014947;28;95703;-72
2023/07/03 08:58:44;;;;;;;20.63;2.83;;;;;;;;;;5016811;28;93177;-71
2023/07/03 09:01:23;;;;;;;19.88;2.97;;;;;;;;;;5016889;28;92507;-71
2023/07/03 09:04:00;;;;;;;13.23;2.60;;;;;;;;;;5016669;28;93161;-72
2023/07/03 09:06:31;;;;;;;16.63;3.28;;;;;;;;;;5019230;28;93054;-71
2023/07/03 09:09:14;;;;;;;20.35;2.58;;;;;;;;;;5016856;28;93411;-71
2023/07/03 09:11:44;;;;;;;13.85;2.70;;;;;;;;;;5015401;28;93084;-72
2023/07/03 09:14:12;;;;;;;12.43;2.25;;;;;;;;;;5016502;28;92436;-71
2023/07/03 09:16:41;;;;;;;15.40;2.80;;;;;;;;;;5022005;28;93729;-71
2023/07/03 09:19:16;;;;;;;13.73;2.53;;;;;;;;;;5034741;27;96450;-71
2023/07/03 09:21:44;;;;;;;14.55;2.58;;;;;;;;;;5017131;27;92424;-71
2023/07/03 09:24:27;;;;;;;15.93;3.17;;;;;;;;;;5017047;28;92738;-72
2023/07/03 09:27:05;;;;;;;11.60;2.35;;;;;;;;;;5015507;28;93579;-72
2023/07/03 09:29:33;;;;;;;14.88;2.00;;;;;;;;;;5019580;28;92780;-71
2023/07/03 09:31:59;;;;;;;8.27;1.55;;;;;;;;;;5016164;28;94471;-71
2023/07/03 09:34:26;;;;;;;10.23;2.15;;;;;;;;;;5016396;28;92445;-72
2023/07/03 09:36:58;;;;;;;8.38;2.50;;;;;;;;;;5016690;28;93698;-72
2023/07/03 09:39:25;;;;;;;8.20;2.00;;;;;;;;;;5016063;28;94436;-72
2023/07/03 09:41:53;;;;;;;10.98;2.10;;;;;;;;;;5015949;28;92799;-71
2023/07/03 09:44:21;;;;;;;9.88;2.25;;;;;;;;;;5014140;28;94828;-72
2023/07/03 09:46:49;;;;;;;14.55;1.90;;;;;;;;;;5015987;28;93734;-71
2023/07/03 09:49:19;;;;;;;12.10;2.92;;;;;;;;;;5019209;28;92375;-71
2023/07/03 09:51:49;;;;;;;18.07;2.47;;;;;;;;;;5014679;28;93709;-71
2023/07/03 09:54:19;;;;;;;10.20;2.33;;;;;;;;;;5015937;28;92641;-72
2023/07/03 09:56:46;;;;;;;11.25;2.13;;;;;;;;;;5015752;28;93171;-71
2023/07/03 09:59:16;;;;;;;10.80;2.20;;;;;;;;;;5015882;28;93552;-72
2023/07/03 10:01:43;;;;;;;9.43;2.30;;;;;;;;;;4999243;28;91647;-72
2023/07/03 10:04:14;;;;;;;10.77;2.13;;;;;;;;;;4996195;28;92475;-71
2023/07/03 10:06:57;;;;;;;9.57;2.30;;;;;;;;;;4994716;28;94804;-73
2023/07/03 10:09:26;;;;;;;10.40;2.05;;;;;;;;;;4994233;28;95277;-72
2023/07/03 10:12:01;;;;;;;13.20;2.72;;;;;;;;;;4997129;28;95450;-72
2023/07/03 10:14:47;;;;;;;11.23;2.22;;;;;;;;;;4995771;28;92434;-71
2023/07/03 10:17:15;;;;;;;11.80;2.30;;;;;;;;;;5006579;28;93113;-71
2023/07/03 10:19:47;;;;;;;10.10;2.33;;;;;;;;;;5015283;28;93424;-71
2023/07/03 10:22:14;;;;;;;14.35;2.50;;;;;;;;;;5015386;28;92642;-71
2023/07/03 10:24:41;;;;;;;15.20;3.40;;;;;;;;;;5015809;28;93282;-72
2023/07/03 10:27:07;;;;;;;14.85;3.17;;;;;;;;;;5015383;28;93661;-71
2023/07/03 10:29:37;;;;;;;18.65;3.15;;;;;;;;;;5015496;28;92425;-71
2023/07/03 10:32:06;;;;;;;20.13;3.95;;;;;;;;;;5015509;28;95634;-71
2023/07/03 10:34:38;;;;;;;22.83;3.72;;;;;;;;;;5016623;28;94787;-72
2023/07/03 10:37:05;;;;;;;16.90;2.90;;;;;;;;;;5015506;28;96973;-72
2023/07/03 10:39:36;;;;;;;20.67;3.78;;;;;;;;;;5013570;28;93506;-71
2023/07/03 10:42:05;;;;;;;17.92;3.80;;;;;;;;;;5015126;28;92461;-71
2023/07/03 10:44:36;;;;;;;18.58;3.47;;;;;;;;;;5015187;28;93672;-71
2023/07/03 10:47:17;;;;;;;11.65;2.85;;;;;;;;;;5015365;28;93292;-72
2023/07/03 10:49:44;;;;;;;24.42;2.72;;;;;;;;;;5015183;28;92492;-71
2023/07/03 10:52:13;;;;;;;13.50;3.10;;;;;;;;;;5014066;28;93191;-71
2023/07/03 10:54:50;;;;;;;17.17;3.47;;;;;;;;;;5014768;28;93627;-71
2023/07/03 10:57:19;;;;;;;19.77;3.95;;;;;;;;;;5018095;28;92454;-72
2023/07/03 10:59:49;;;;;;;19.45;3.38;;;;;;;;;;5013322;28;96882;-72
2023/07/03 11:02:19;;;;;;;23.45;3.50;;;;;;;;;;5015252;28;92409;-72
2023/07/03 11:05:03;;;;;;;20.60;3.27;;;;;;;;;;5015023;28;93149;-72
2023/07/03 11:07:36;;;;;;;19.25;3.58;;;;;;;;;;5014893;28;94303;-73
2023/07/03 11:10:19;;;;;;;16.42;3.38;;;;;;;;;;5014879;28;92633;-72
2023/07/03 11:12:51;;;;;;;14.65;3.78;;;;;;;;;;5014708;28;92710;-72
2023/07/03 11:15:17;;;;;;;18.80;3.85;;;;;;;;;;5013521;28;94976;-72
2023/07/03 11:18:03;;;;;;;20.13;3.60;;;;;;;;;;5014997;28;91864;-71
2023/07/03 11:20:35;;;;;;;14.68;3.65;;;;;;;;;;5017744;28;92335;-72
2023/07/03 11:23:30;;;;;;;20.30;3.50;;;;;;;;;;5013653;28;92844;-72
2023/07/03 11:26:12;;;;;;;17.10;3.42;;;;;;;;;;5012588;28;94922;-72
2023/07/03 11:28:43;;;;;;;15.88;3.40;;;;;;;;;;5012488;28;94134;-72
2023/07/03 11:31:10;;;;;;;21.35;3.67;;;;;;;;;;5014679;28;92918;-72
2023/07/03 11:33:37;;;;;;;17.13;3.40;;;;;;;;;;5014556;28;93015;-72
2023/07/03 11:36:07;;;;;;;12.25;3.30;;;;;;;;;;5014390;28;93244;-72
2023/07/03 11:38:34;;;;;;;18.83;2.97;;;;;;;;;;5014237;28;92465;-72
2023/07/03 11:41:07;;;;;;;11.02;2.30;;;;;;;;;;5012367;28;92930;-72
2023/07/03 11:43:53;;;;;;;12.73;2.57;;;;;;;;;;5017790;28;92804;-72
2023/07/03 11:46:24;;;;;;;10.68;2.70;;;;;;;;;;5013287;28;92493;-72
2023/07/03 11:48:55;;;;;;;14.15;2.40;;;;;;;;;;5014437;28;95807;-72
2023/07/03 11:51:32;;;;;;;14.93;3.70;;;;;;;;;;5013087;28;94815;-71
2023/07/03 11:53:58;;;;;;;8.70;2.33;;;;;;;;;;5014076;28;95611;-71
2023/07/03 11:56:31;;;;;;;9.52;1.95;;;;;;;;;;5013891;28;93569;-71
2023/07/03 11:59:01;;;;;;;22.67;2.83;;;;;;;;;;5012964;28;92492;-71
2023/07/03 12:01:30;;;;;;;20.42;3.58;;;;;;;;;;5013761;28;92645;-71
2023/07/03 12:03:58;;;;;;;15.57;2.15;;;;;;;;;;5016948;28;93680;-71
2023/07/03 12:06:40;;;;;;;19.80;2.47;;;;;;;;;;5013837;28;93214;-71
2023/07/03 12:09:19;;;;;;;10.63;2.80;;;;;;;;;;5014469;28;92878;-71
2023/07/03 12:12:00;;;;;;;14.05;2.83;;;;;;;;;;5012666;28;92427;-72
2023/07/03 12:14:39;;;;;;;13.88;2.67;;;;;;;;;;5013967;28;93323;-71
2023/07/03 12:17:19;;;;;;;16.95;2.75;;;;;;;;;;5012533;28;97418;-72
2023/07/03 12:19:46;;;;;;;16.05;3.13;;;;;;;;;;5014026;28;92712;-71
2023/07/03 12:22:14;;;;;;;13.07;2.47;;;;;;;;;;5013640;28;93196;-71
2023/07/03 12:24:40;;;;;;;9.90;2.25;;;;;;;;;;5013629;28;92663;-71
2023/07/03 12:27:08;;;;;;;43.08;2.72;;;;;;;;;;5016487;28;92556;-73
2023/07/03 12:29:44;;;;;;;10.48;2.33;;;;;;;;;;5014248;28;93898;-72
2023/07/03 12:32:11;;;;;;;10.50;2.03;;;;;;;;;;5016394;28;92407;-70
2023/07/03 12:34:39;;;;;;;6.78;1.77;;;;;;;;;;5017576;28;93145;-71
2023/07/03 12:37:07;;;;;;;6.85;1.63;;;;;;;;;;5015372;28;93488;-70
2023/07/03 12:39:34;;;;;;;4.13;1.05;;;;;;;;;;5017129;28;92520;-71
2023/07/03 12:42:05;;;;;;;5.05;1.35;;;;;;;;;;5016093;28;94796;-71
2023/07/03 12:44:31;;;;;;;10.10;1.80;;;;;;;;;;5016673;28;93491;-71
2023/07/03 12:47:05;;;;;;;10.90;1.65;;;;;;;;;;5017351;28;92513;-70
2023/07/03 12:49:45;;;;;;;9.50;1.92;;;;;;;;;;5018362;28;93168;-71
2023/07/03 12:52:12;;;;;;;6.35;1.50;;;;;;;;;;5017102;28;92399;-71
2023/07/03 12:54:39;;;;;;;9.10;1.75;;;;;;;;;;5016802;28;93122;-71
2023/07/03 12:57:06;;;;;;;6.18;1.35;;;;;;;;;;5017057;28;94788;-71
2023/07/03 12:59:33;;;;;;;9.15;1.63;;;;;;;;;;5017361;28;91756;-71
2023/07/03 13:01:59;;;;;;;8.63;1.48;;;;;;;;;;5016338;28;92461;-71
2023/07/03 13:04:27;;;;;;;4.28;1.65;;;;;;;;;;5016916;28;94750;-71
2023/07/03 13:06:53;;;;;;;5.47;1.38;;;;;;;;;;5015042;28;94879;-71
2023/07/03 13:09:20;;;;;;;11.20;1.67;;;;;;;;;;5016641;28;96008;-72
2023/07/03 13:11:46;;;;;;;7.53;1.77;;;;;;;;;;5019560;28;93613;-71
2023/07/03 13:14:15;;;;;;;11.93;1.67;;;;;;;;;;5016617;28;93153;-71
2023/07/03 13:16:43;;;;;;;13.73;1.98;;;;;;;;;;5016838;28;94761;-72
2023/07/03 13:19:10;;;;;;;12.45;1.92;;;;;;;;;;5016358;28;92722;-71
2023/07/03 13:21:37;;;;;;;10.73;1.60;;;;;;;;;;5016402;28;93569;-71
2023/07/03 13:24:05;;;;;;;14.45;1.60;;;;;;;;;;5016774;28;92873;-72
2023/07/03 13:26:31;;;;;;;5.55;1.75;;;;;;;;;;5016381;28;92426;-72
2023/07/03 13:28:59;;;;;;;13.88;1.60;;;;;;;;;;5014682;28;92433;-71
2023/07/03 13:31:26;;;;;;;7.57;1.42;;;;;;;;;;5014625;28;95893;-71
2023/07/03 13:34:11;;;;;;;15.73;1.88;;;;;;;;;;5019516;28;92585;-71
2023/07/03 13:36:39;;;;;;;7.83;1.50;;;;;;;;;;5016056;28;93477;-72
2023/07/03 13:39:05;;;;;;;11.38;1.80;;;;;;;;;;5016361;28;92365;-71
2023/07/03 13:41:32;;;;;;;4.57;1.58;;;;;;;;;;5014994;28;94487;-71
2023/07/03 13:43:58;;;;;;;8.48;1.95;;;;;;;;;;5014606;28;93826;-71
2023/07/03 13:46:26;;;;;;;7.57;1.35;;;;;;;;;;5015930;28;92515;-71
2023/07/03 13:48:52;;;;;;;7.57;1.60;;;;;;;;;;5016742;28;93440;-71
2023/07/03 13:51:19;;;;;;;18.05;2.00;;;;;;;;;;5016224;28;95913;-71
2023/07/03 13:53:47;;;;;;;10.07;1.63;;;;;;;;;;5015989;28;92533;-71
2023/07/03 13:56:19;;;;;;;10.07;1.50;;;;;;;;;;5017228;28;94858;-71
2023/07/03 13:58:45;;;;;;;9.48;1.90;;;;;;;;;;5016002;28;92630;-71
2023/07/03 14:01:12;;;;;;;10.20;1.92;;;;;;;;;;5015804;28;93233;-72
2023/07/03 14:03:51;;;;;;;10.10;2.03;;;;;;;;;;5015152;28;95962;-73
2023/07/03 14:06:20;;;;;;;7.18;1.55;;;;;;;;;;5015871;28;92720;-71
2023/07/03 14:08:46;;;;;;;7.47;1.60;;;;;;;;;;5014901;28;93381;-71
2023/07/03 14:11:13;;;;;;;8.68;2.05;;;;;;;;;;5015368;28;93897;-71
2023/07/03 14:13:41;;;;;;;5.65;1.70;;;;;;;;;;5016186;28;91694;-71
2023/07/03 14:16:08;;;;;;;11.65;2.00;;;;;;;;;;5018726;28;92438;-71
2023/07/03 14:18:34;;;;;;;6.38;1.60;;;;;;;;;;5015684;28;92435;-71
2023/07/03 14:21:01;;;;;;;12.75;1.83;;;;;;;;;;5014312;28;95203;-72
2023/07/03 14:23:27;;;;;;;6.90;1.70;;;;;;;;;;5014470;28;95023;-72
2023/07/03 14:25:54;;;;;;;17.85;2.28;;;;;;;;;;5014586;28;92523;-71
2023/07/03 14:28:20;;;;;;;5.82;1.88;;;;;;;;;;5015951;28;94159;-71
2023/07/03 14:30:47;;;;;;;7.82;1.90;;;;;;;;;;5015546;28;93594;-71
2023/07/03 14:33:13;;;;;;;6.88;1.83;;;;;;;;;;5015554;28;92456;-72
2023/07/03 14:35:39;;;;;;;8.75;1.70;;;;;;;;;;5015127;28;94266;-72
2023/07/03 14:38:06;;;;;;;9.57;2.13;;;;;;;;;;5018934;28;92840;-72